createdAt,value
2017-10-06T00:01:54.864Z,13.90
2017-10-06T00:04:29.497Z,13.90
2017-10-06T00:07:04.071Z,13.70
2017-10-06T00:09:38.671Z,13.70
2017-10-06T00:12:13.200Z,13.70
2017-10-06T00:14:47.715Z,13.70
2017-10-06T00:17:22.248Z,13.60
2017-10-06T00:19:56.759Z,13.60
2017-10-06T00:22:31.349Z,13.50
2017-10-06T00:25:11.948Z,13.50
2017-10-06T00:27:46.408Z,13.40
2017-10-06T00:30:21.189Z,13.40
2017-10-06T00:32:55.871Z,13.30
2017-10-06T00:35:30.626Z,13.30
2017-10-06T00:38:05.839Z,13.20
2017-10-06T00:40:40.363Z,13.10
2017-10-06T00:43:14.963Z,13.20
2017-10-06T00:45:49.476Z,13.10
2017-10-06T00:48:23.968Z,13.10
2017-10-06T00:51:02.396Z,13.10
2017-10-06T00:53:36.735Z,13.10
2017-10-06T00:56:10.796Z,13.00
2017-10-06T00:58:44.740Z,13.00
2017-10-06T01:01:19.287Z,12.90
2017-10-06T01:03:53.817Z,12.90
2017-10-06T01:06:28.349Z,12.90
2017-10-06T01:09:02.832Z,12.90
2017-10-06T01:11:37.010Z,12.90
2017-10-06T01:14:11.587Z,12.90
2017-10-06T01:16:46.172Z,12.70
2017-10-06T01:19:20.477Z,12.60
2017-10-06T01:21:54.579Z,12.70
2017-10-06T01:24:28.357Z,12.70
2017-10-06T01:27:02.664Z,12.60
2017-10-06T01:29:36.551Z,12.60
2017-10-06T01:32:11.187Z,12.60
2017-10-06T01:34:45.751Z,12.60
2017-10-06T01:37:20.256Z,12.60
2017-10-06T01:39:54.907Z,12.60
2017-10-06T01:42:30.191Z,12.60
2017-10-06T01:45:10.272Z,12.60
2017-10-06T01:47:44.708Z,12.70
2017-10-06T01:50:19.307Z,12.50
2017-10-06T01:52:53.803Z,12.50
2017-10-06T01:55:28.532Z,12.60
2017-10-06T01:58:03.051Z,12.50
2017-10-06T02:00:36.904Z,12.50
2017-10-06T02:03:11.021Z,12.50
2017-10-06T02:05:45.494Z,12.50
2017-10-06T02:08:20.159Z,12.50
2017-10-06T02:10:54.329Z,12.50
2017-10-06T02:13:28.898Z,12.40
2017-10-06T02:16:03.870Z,12.40
2017-10-06T02:18:38.550Z,12.30
2017-10-06T02:21:12.440Z,12.30
2017-10-06T02:23:47.205Z,12.30
2017-10-06T02:26:21.589Z,12.20
2017-10-06T02:28:55.848Z,12.20
2017-10-06T02:31:30.244Z,12.20
2017-10-06T02:34:04.797Z,12.20
2017-10-06T02:36:39.684Z,12.10
2017-10-06T02:39:14.199Z,12.10
2017-10-06T02:41:48.807Z,12.10
2017-10-06T02:44:23.394Z,12.10
2017-10-06T02:46:57.904Z,12.10
2017-10-06T02:49:32.392Z,12.10
2017-10-06T02:52:06.933Z,12.10
2017-10-06T02:54:41.502Z,12.10
2017-10-06T02:57:16.154Z,12.00
2017-10-06T02:59:50.767Z,12.00
2017-10-06T03:02:25.355Z,12.00
2017-10-06T03:04:59.941Z,12.00
2017-10-06T03:07:34.496Z,11.90
2017-10-06T03:10:15.531Z,11.90
2017-10-06T03:12:56.996Z,11.90
2017-10-06T03:15:31.664Z,11.90
2017-10-06T03:18:06.221Z,11.90
2017-10-06T03:20:40.820Z,11.90
2017-10-06T03:23:15.323Z,11.80
2017-10-06T03:25:49.975Z,11.80
2017-10-06T03:28:25.332Z,11.90
2017-10-06T03:30:59.997Z,11.80
2017-10-06T03:33:34.581Z,11.80
2017-10-06T03:36:09.239Z,11.80
2017-10-06T03:38:43.898Z,11.80
2017-10-06T03:41:18.511Z,11.80
2017-10-06T03:43:52.998Z,11.80
2017-10-06T03:46:27.622Z,11.80
2017-10-06T03:49:02.174Z,11.90
2017-10-06T03:51:36.823Z,11.90
2017-10-06T03:54:11.484Z,11.80
2017-10-06T03:56:46.017Z,11.80
2017-10-06T03:59:20.574Z,11.80
2017-10-06T04:01:55.131Z,11.80
2017-10-06T04:04:30.684Z,11.70
2017-10-06T04:07:05.356Z,11.70
2017-10-06T04:09:40.744Z,11.70
2017-10-06T04:12:15.259Z,11.60
2017-10-06T04:14:49.925Z,11.70
2017-10-06T04:17:24.549Z,11.70
2017-10-06T04:19:59.775Z,11.60
2017-10-06T04:22:34.223Z,11.50
2017-10-06T04:25:12.139Z,11.60
2017-10-06T04:27:46.728Z,11.60
2017-10-06T04:30:21.319Z,11.60
2017-10-06T04:32:55.880Z,11.60
2017-10-06T04:35:30.560Z,11.60
2017-10-06T04:38:05.222Z,11.50
2017-10-06T04:40:40.178Z,11.50
2017-10-06T04:43:14.561Z,11.10
2017-10-06T04:45:48.991Z,11.50
2017-10-06T04:48:23.640Z,11.40
2017-10-06T04:50:58.271Z,11.40
2017-10-06T04:53:32.844Z,11.30
2017-10-06T04:56:07.079Z,11.30
2017-10-06T04:58:41.655Z,11.30
2017-10-06T05:01:15.847Z,11.30
2017-10-06T05:03:50.280Z,11.30
2017-10-06T05:06:24.916Z,11.30
2017-10-06T05:08:59.431Z,11.30
2017-10-06T05:11:34.051Z,11.30
2017-10-06T05:14:08.516Z,11.30
2017-10-06T05:16:43.121Z,11.20
2017-10-06T05:19:17.565Z,11.20
2017-10-06T05:21:52.115Z,11.20
2017-10-06T05:24:26.537Z,11.10
2017-10-06T05:27:01.141Z,11.10
2017-10-06T05:29:36.515Z,11.10
2017-10-06T05:32:11.015Z,11.10
2017-10-06T05:34:45.512Z,11.20
2017-10-06T05:37:20.083Z,11.20
2017-10-06T05:39:54.579Z,11.20
2017-10-06T05:42:29.144Z,11.20
2017-10-06T05:47:48.658Z,11.40
2017-10-06T05:50:23.243Z,11.30
2017-10-06T05:52:57.838Z,11.40
2017-10-06T05:55:32.297Z,11.50
2017-10-06T05:58:06.803Z,11.60
2017-10-06T06:00:41.083Z,11.70
2017-10-06T06:03:15.731Z,11.80
2017-10-06T06:05:50.207Z,11.90
2017-10-06T06:08:24.515Z,12.10
2017-10-06T06:10:58.932Z,12.30
2017-10-06T06:13:33.299Z,12.40
2017-10-06T06:16:07.664Z,12.50
2017-10-06T06:18:41.896Z,12.70
2017-10-06T06:21:16.491Z,12.90
2017-10-06T06:23:51.372Z,13.10
2017-10-06T06:26:25.967Z,13.30
2017-10-06T06:29:00.659Z,13.60
2017-10-06T06:31:34.862Z,13.90
2017-10-06T06:34:09.569Z,14.10
2017-10-06T06:36:44.058Z,14.40
2017-10-06T06:39:18.398Z,14.40
2017-10-06T06:41:53.015Z,14.70
2017-10-06T06:44:27.624Z,14.90
2017-10-06T06:47:02.143Z,15.00
2017-10-06T06:49:36.782Z,15.10
2017-10-06T06:52:11.494Z,15.20
2017-10-06T06:54:45.955Z,15.30
2017-10-06T06:57:20.579Z,15.50
2017-10-06T06:59:55.287Z,15.70
2017-10-06T07:02:29.100Z,15.90
2017-10-06T07:05:12.375Z,16.00
2017-10-06T07:07:47.776Z,16.50
2017-10-06T07:10:21.608Z,16.40
2017-10-06T07:12:56.280Z,16.80
2017-10-06T07:15:30.475Z,17.00
2017-10-06T07:18:04.967Z,17.20
2017-10-06T07:20:39.655Z,17.40
2017-10-06T07:23:14.092Z,17.50
2017-10-06T07:25:48.982Z,17.20
2017-10-06T07:28:23.705Z,17.10
2017-10-06T07:30:58.260Z,17.20
2017-10-06T07:33:32.864Z,17.50
2017-10-06T07:36:07.377Z,18.40
2017-10-06T07:38:42.067Z,20.30
2017-10-06T07:41:16.652Z,22.50
2017-10-06T07:43:51.280Z,24.30
2017-10-06T07:46:25.700Z,26.90
2017-10-06T07:49:00.208Z,29.20
2017-10-06T07:51:34.748Z,31.50
2017-10-06T07:54:09.438Z,33.90
2017-10-06T07:56:44.204Z,34.60
2017-10-06T07:59:18.784Z,35.90
2017-10-06T08:01:53.302Z,38.80
2017-10-06T08:04:28.043Z,40.30
2017-10-06T08:07:02.616Z,40.30
2017-10-06T08:09:37.979Z,42.80
2017-10-06T08:12:12.620Z,42.60
2017-10-06T08:14:47.104Z,44.20
2017-10-06T08:17:21.660Z,43.80
2017-10-06T08:19:56.330Z,40.50
2017-10-06T08:22:30.979Z,37.30
2017-10-06T08:25:13.789Z,35.00
2017-10-06T08:27:48.254Z,33.60
2017-10-06T08:30:22.752Z,34.20
2017-10-06T08:32:57.436Z,38.10
2017-10-06T08:35:31.940Z,40.00
2017-10-06T08:38:06.804Z,43.80
2017-10-06T08:40:41.279Z,43.70
2017-10-06T08:43:15.948Z,43.70
2017-10-06T08:45:50.068Z,40.70
2017-10-06T08:48:24.603Z,41.70
2017-10-06T08:50:59.134Z,41.90
2017-10-06T08:53:33.673Z,40.70
2017-10-06T08:56:07.892Z,42.50
2017-10-06T08:58:43.122Z,42.20
2017-10-06T09:01:17.550Z,42.10
2017-10-06T09:03:52.259Z,42.60
2017-10-06T09:06:26.763Z,43.80
2017-10-06T09:09:01.268Z,44.90
2017-10-06T09:11:35.428Z,44.90
2017-10-06T09:14:09.903Z,44.60
2017-10-06T09:16:45.123Z,39.10
2017-10-06T09:19:19.736Z,39.00
2017-10-06T09:21:54.248Z,35.90
2017-10-06T09:24:28.611Z,32.40
2017-10-06T09:27:03.196Z,29.40
2017-10-06T09:29:37.884Z,27.60
2017-10-06T09:32:12.372Z,26.00
2017-10-06T09:34:47.043Z,24.50
2017-10-06T09:37:21.535Z,23.20
2017-10-06T09:39:56.186Z,22.10
2017-10-06T09:42:30.775Z,21.40
2017-10-06T09:45:10.779Z,24.80
2017-10-06T09:47:45.391Z,27.20
2017-10-06T09:50:19.909Z,27.20
2017-10-06T09:52:54.497Z,26.10
2017-10-06T09:55:28.988Z,24.80
2017-10-06T09:58:04.427Z,26.30
2017-10-06T10:00:38.991Z,26.20
2017-10-06T10:03:13.524Z,29.10
2017-10-06T10:05:48.181Z,28.10
2017-10-06T10:08:22.869Z,26.50
2017-10-06T10:10:57.337Z,25.30
2017-10-06T10:13:31.837Z,24.00
2017-10-06T10:16:06.577Z,22.90
2017-10-06T10:18:41.234Z,21.60
2017-10-06T10:21:15.801Z,20.90
2017-10-06T10:23:50.417Z,20.00
2017-10-06T10:26:24.964Z,19.70
2017-10-06T10:28:59.605Z,19.30
2017-10-06T10:31:34.183Z,18.80
2017-10-06T10:34:08.772Z,18.70
2017-10-06T10:36:43.287Z,18.50
2017-10-06T10:39:17.839Z,18.10
2017-10-06T10:41:52.608Z,17.80
2017-10-06T10:44:27.194Z,17.70
2017-10-06T10:47:01.648Z,17.60
2017-10-06T10:49:35.563Z,17.60
2017-10-06T10:52:10.259Z,17.40
2017-10-06T10:54:44.017Z,17.30
2017-10-06T10:57:18.541Z,16.90
2017-10-06T10:59:52.635Z,16.50
2017-10-06T11:02:26.583Z,16.70
2017-10-06T11:05:01.071Z,16.80
2017-10-06T11:07:34.899Z,16.70
2017-10-06T11:10:14.210Z,16.60
2017-10-06T11:12:48.387Z,16.50
2017-10-06T11:15:22.203Z,16.70
2017-10-06T11:17:57.095Z,16.90
2017-10-06T11:20:31.354Z,16.80
2017-10-06T11:23:05.232Z,16.90
2017-10-06T11:25:39.131Z,16.80
2017-10-06T11:28:13.171Z,16.60
2017-10-06T11:30:47.143Z,16.40
2017-10-06T11:33:20.935Z,16.00
2017-10-06T11:35:54.720Z,15.90
2017-10-06T11:38:29.067Z,15.80
2017-10-06T11:41:03.243Z,15.70
2017-10-06T11:43:37.202Z,15.80
2017-10-06T11:46:11.170Z,15.70
2017-10-06T11:48:45.275Z,15.80
2017-10-06T11:51:19.607Z,15.80
2017-10-06T11:53:53.803Z,15.80
2017-10-06T11:56:28.055Z,15.80
2017-10-06T11:59:02.259Z,15.70
2017-10-06T12:01:36.476Z,15.90
2017-10-06T12:04:10.654Z,16.20
2017-10-06T12:06:44.496Z,16.30
2017-10-06T12:09:18.741Z,16.20
2017-10-06T12:11:52.858Z,16.20
2017-10-06T12:14:27.105Z,16.20
2017-10-06T12:17:01.342Z,16.30
2017-10-06T12:19:35.927Z,16.20
2017-10-06T12:22:09.737Z,16.20
2017-10-06T12:24:43.900Z,16.20
2017-10-06T12:27:17.652Z,16.20
2017-10-06T12:29:51.767Z,16.20
2017-10-06T12:32:25.948Z,16.10
2017-10-06T12:35:00.103Z,16.10
2017-10-06T12:37:34.390Z,16.10
2017-10-06T12:40:14.564Z,16.20
2017-10-06T12:42:48.728Z,16.10
2017-10-06T12:45:22.958Z,16.20
2017-10-06T12:47:56.705Z,16.30
2017-10-06T12:50:31.168Z,16.40
2017-10-06T12:53:06.520Z,16.20
2017-10-06T12:55:40.321Z,16.20
2017-10-06T12:58:14.556Z,16.10
2017-10-06T13:00:48.506Z,16.20
2017-10-06T13:03:22.401Z,16.10
2017-10-06T13:05:56.198Z,16.20
2017-10-06T13:08:30.448Z,16.40
2017-10-06T13:11:04.383Z,16.90
2017-10-06T13:13:38.356Z,17.20
2017-10-06T13:16:12.935Z,17.80
2017-10-06T13:18:47.299Z,18.10
2017-10-06T13:21:21.656Z,18.40
2017-10-06T13:23:56.268Z,18.40
2017-10-06T13:26:31.036Z,18.50
2017-10-06T13:29:05.419Z,18.60
2017-10-06T13:31:40.079Z,18.60
2017-10-06T13:34:14.769Z,18.40
2017-10-06T13:36:49.466Z,18.20
2017-10-06T13:39:24.040Z,18.00
2017-10-06T13:41:58.499Z,17.40
2017-10-06T13:44:32.995Z,17.40
2017-10-06T13:47:07.566Z,17.40
2017-10-06T13:49:42.001Z,17.30
2017-10-06T13:52:16.751Z,17.00
2017-10-06T13:54:51.411Z,17.00
2017-10-06T13:57:25.940Z,17.00
2017-10-06T14:00:00.656Z,17.20
2017-10-06T14:02:35.284Z,17.20
2017-10-06T14:05:15.179Z,17.10
2017-10-06T14:07:50.011Z,17.00
2017-10-06T14:10:24.459Z,16.80
2017-10-06T14:12:58.978Z,16.60
2017-10-06T14:15:33.470Z,16.70
2017-10-06T14:18:08.143Z,16.60
2017-10-06T14:20:42.690Z,16.60
2017-10-06T14:23:17.320Z,16.50
2017-10-06T14:25:51.918Z,16.60
2017-10-06T14:28:26.419Z,16.60
2017-10-06T14:31:00.962Z,16.50
2017-10-06T14:33:35.490Z,16.60
2017-10-06T14:36:10.156Z,16.60
2017-10-06T14:38:44.863Z,16.40
2017-10-06T14:41:19.376Z,16.30
2017-10-06T14:43:53.858Z,16.40
2017-10-06T14:46:29.141Z,16.10
2017-10-06T14:49:03.728Z,16.00
2017-10-06T14:51:38.292Z,16.00
2017-10-06T14:54:12.918Z,15.80
2017-10-06T14:56:48.248Z,15.60
2017-10-06T14:59:22.887Z,15.50
2017-10-06T15:01:57.515Z,15.60
2017-10-06T15:04:31.951Z,15.30
2017-10-06T15:07:06.556Z,15.10
2017-10-06T15:09:41.808Z,14.90
2017-10-06T15:12:16.607Z,14.80
2017-10-06T15:14:51.255Z,14.90
2017-10-06T15:17:25.858Z,14.80
2017-10-06T15:20:00.515Z,14.80
2017-10-06T15:22:35.043Z,14.80
2017-10-06T15:25:13.339Z,14.80
2017-10-06T15:27:48.588Z,14.60
2017-10-06T15:30:23.227Z,14.50
2017-10-06T15:32:57.716Z,14.20
2017-10-06T15:35:32.283Z,14.30
2017-10-06T15:38:06.707Z,14.10
2017-10-06T15:40:41.223Z,14.10
2017-10-06T15:43:15.848Z,14.10
2017-10-06T15:45:50.362Z,14.00
2017-10-06T15:48:24.987Z,13.90
2017-10-06T15:50:59.703Z,13.90
2017-10-06T15:53:34.326Z,13.90
2017-10-06T15:56:09.751Z,13.80
2017-10-06T15:58:44.310Z,13.70
2017-10-06T16:01:18.828Z,13.60
2017-10-06T16:03:53.327Z,13.40
2017-10-06T16:06:27.877Z,13.30
2017-10-06T16:09:02.479Z,13.20
2017-10-06T16:11:36.974Z,13.10
2017-10-06T16:14:11.480Z,13.00
2017-10-06T16:16:45.903Z,12.90
2017-10-06T16:19:20.383Z,12.90
2017-10-06T16:21:54.703Z,12.80
2017-10-06T16:24:29.415Z,12.70
2017-10-06T16:27:03.981Z,12.70
2017-10-06T16:29:38.443Z,12.60
2017-10-06T16:32:13.037Z,12.60
2017-10-06T16:34:47.444Z,12.60
2017-10-06T16:37:21.843Z,12.30
2017-10-06T16:39:56.277Z,12.40
2017-10-06T16:42:30.820Z,12.40
2017-10-06T16:45:13.951Z,12.30
2017-10-06T16:47:48.535Z,12.30
2017-10-06T16:50:23.112Z,12.20
2017-10-06T16:52:57.564Z,12.20
2017-10-06T16:55:32.054Z,12.10
2017-10-06T16:58:06.644Z,12.00
2017-10-06T17:00:41.211Z,12.10
2017-10-06T17:03:15.826Z,12.10
2017-10-06T17:05:50.383Z,12.10
2017-10-06T17:08:24.842Z,12.10
2017-10-06T17:10:59.390Z,12.00
2017-10-06T17:13:33.854Z,12.00
2017-10-06T17:16:08.431Z,12.00
2017-10-06T17:18:43.091Z,12.00
2017-10-06T17:21:17.586Z,12.00
2017-10-06T17:23:52.264Z,11.90
2017-10-06T17:26:26.824Z,11.90
2017-10-06T17:29:01.384Z,12.00
2017-10-06T17:31:35.973Z,11.90
2017-10-06T17:34:10.440Z,12.00
2017-10-06T17:36:44.968Z,11.90
2017-10-06T17:39:19.698Z,11.90
2017-10-06T17:41:53.971Z,11.90
2017-10-06T17:44:28.336Z,12.00
2017-10-06T17:47:03.701Z,11.80
2017-10-06T17:49:38.207Z,11.80
2017-10-06T17:52:12.822Z,11.90
2017-10-06T17:54:47.472Z,11.80
2017-10-06T17:57:22.059Z,11.70
2017-10-06T17:59:56.731Z,11.70
2017-10-06T18:02:31.314Z,11.70
2017-10-06T18:05:11.760Z,11.70
2017-10-06T18:07:46.132Z,11.70
2017-10-06T18:10:20.565Z,11.70
2017-10-06T18:12:55.143Z,11.70
2017-10-06T18:15:29.733Z,11.60
2017-10-06T18:18:04.135Z,11.60
2017-10-06T18:20:38.727Z,11.60
2017-10-06T18:23:13.279Z,11.60
2017-10-06T18:25:48.612Z,11.60
2017-10-06T18:28:23.340Z,11.50
2017-10-06T18:30:57.917Z,11.60
2017-10-06T18:33:32.367Z,11.60
2017-10-06T18:36:07.144Z,11.60
2017-10-06T18:38:41.764Z,11.60
2017-10-06T18:41:16.362Z,11.50
2017-10-06T18:43:50.652Z,11.40
2017-10-06T18:46:31.520Z,11.40
2017-10-06T18:49:12.281Z,11.50
2017-10-06T18:51:46.747Z,11.50
2017-10-06T18:54:21.476Z,11.50
2017-10-06T18:56:56.736Z,11.40
2017-10-06T18:59:31.336Z,11.40
2017-10-06T19:02:06.038Z,11.40
2017-10-06T19:04:40.687Z,11.40
2017-10-06T19:07:15.235Z,11.40
2017-10-06T19:09:49.683Z,11.40
2017-10-06T19:12:24.192Z,11.40
2017-10-06T19:14:59.428Z,11.30
2017-10-06T19:17:34.144Z,11.20
2017-10-06T19:20:15.900Z,11.30
2017-10-06T19:22:50.420Z,11.30
2017-10-06T19:25:24.992Z,11.30
2017-10-06T19:27:59.671Z,11.30
2017-10-06T19:30:34.263Z,11.20
2017-10-06T19:33:08.917Z,11.20
2017-10-06T19:35:43.492Z,11.30
2017-10-06T19:38:17.956Z,11.20
2017-10-06T19:40:52.564Z,11.20
2017-10-06T19:43:26.935Z,11.30
2017-10-06T19:46:01.359Z,11.30
2017-10-06T19:48:35.860Z,11.30
2017-10-06T19:51:10.373Z,11.30
2017-10-06T19:53:45.180Z,11.20
2017-10-06T19:56:19.944Z,11.30
2017-10-06T19:58:54.464Z,11.30
2017-10-06T20:01:28.998Z,11.30
2017-10-06T20:04:03.606Z,11.30
2017-10-06T20:06:38.156Z,11.30
2017-10-06T20:09:12.729Z,11.30
2017-10-06T20:11:47.385Z,11.20
2017-10-06T20:14:22.450Z,11.20
2017-10-06T20:16:57.027Z,11.20
2017-10-06T20:19:31.548Z,11.20
2017-10-06T20:22:07.815Z,11.20
2017-10-06T20:24:42.528Z,11.20
2017-10-06T20:27:17.015Z,11.20
2017-10-06T20:29:51.435Z,11.20
2017-10-06T20:32:26.264Z,11.20
2017-10-06T20:35:00.617Z,11.10
2017-10-06T20:37:35.384Z,11.10
2017-10-06T20:40:17.553Z,11.10
2017-10-06T20:42:52.103Z,11.10
2017-10-06T20:45:26.515Z,11.00
2017-10-06T20:48:01.040Z,11.10
2017-10-06T20:50:35.507Z,11.10
2017-10-06T20:53:09.962Z,11.00
2017-10-06T20:55:44.593Z,11.00
2017-10-06T20:58:19.096Z,11.00
2017-10-06T21:00:53.767Z,11.00
2017-10-06T21:03:28.399Z,10.90
2017-10-06T21:06:03.067Z,10.90
2017-10-06T21:08:37.734Z,10.90
2017-10-06T21:11:12.313Z,10.90
2017-10-06T21:13:46.783Z,10.90
2017-10-06T21:16:21.284Z,10.80
2017-10-06T21:18:55.607Z,10.90
2017-10-06T21:21:30.133Z,10.90
2017-10-06T21:24:04.435Z,10.90
2017-10-06T21:26:38.936Z,10.80
2017-10-06T21:29:13.396Z,10.90
2017-10-06T21:31:47.972Z,10.90
2017-10-06T21:34:22.594Z,10.80
2017-10-06T21:36:57.251Z,10.80
2017-10-06T21:39:31.767Z,10.80
2017-10-06T21:42:06.287Z,10.80
2017-10-06T21:44:40.848Z,10.80
2017-10-06T21:47:15.412Z,10.80
2017-10-06T21:49:49.916Z,10.80
2017-10-06T21:52:25.384Z,10.80
2017-10-06T21:54:59.724Z,10.80
2017-10-06T21:57:34.051Z,10.80
2017-10-06T22:00:15.195Z,10.80
2017-10-06T22:02:49.788Z,10.80
2017-10-06T22:05:24.323Z,10.80
2017-10-06T22:07:59.734Z,10.90
2017-10-06T22:10:34.227Z,10.80
2017-10-06T22:13:08.977Z,10.80
2017-10-06T22:15:43.639Z,10.80
2017-10-06T22:18:18.350Z,10.80
2017-10-06T22:20:53.567Z,10.70
2017-10-06T22:23:28.127Z,10.70
2017-10-06T22:26:02.671Z,10.80
2017-10-06T22:28:37.187Z,10.80
2017-10-06T22:31:11.723Z,10.80
2017-10-06T22:33:46.264Z,10.80
2017-10-06T22:36:20.843Z,10.80
2017-10-06T22:38:55.494Z,10.80
2017-10-06T22:41:30.071Z,10.80
2017-10-06T22:44:04.609Z,10.80
2017-10-06T22:46:39.208Z,10.80
2017-10-06T22:49:13.757Z,10.90
2017-10-06T22:51:48.060Z,10.90
2017-10-06T22:54:23.100Z,11.00
2017-10-06T22:56:57.719Z,11.00
2017-10-06T22:59:32.219Z,11.00
2017-10-06T23:02:06.760Z,11.00
2017-10-06T23:04:41.398Z,11.10
2017-10-06T23:07:15.948Z,11.10
2017-10-06T23:09:50.526Z,11.10
2017-10-06T23:12:24.992Z,11.00
2017-10-06T23:14:59.537Z,11.00
2017-10-06T23:17:34.105Z,11.00
2017-10-06T23:20:15.651Z,11.10
2017-10-06T23:22:50.147Z,11.10
2017-10-06T23:25:25.662Z,11.10
2017-10-06T23:28:00.261Z,11.10
2017-10-06T23:30:35.526Z,11.10
2017-10-06T23:33:10.143Z,11.10
2017-10-06T23:35:44.677Z,11.10
2017-10-06T23:38:19.145Z,11.10
2017-10-06T23:40:53.704Z,11.00
2017-10-06T23:43:28.382Z,11.00
2017-10-06T23:46:02.955Z,11.00
2017-10-06T23:48:37.534Z,10.90
2017-10-06T23:51:12.090Z,10.90
2017-10-06T23:53:47.457Z,10.90
2017-10-06T23:56:21.967Z,10.80
2017-10-06T23:58:56.633Z,10.80
